Terminal Aerodrome Forecast
Issued by NWS

Home | Current Version | Previous Version | Graphics & Text | Print | Product List | Glossary On
Versions: 1 2 3 4 5 6 7 8 9 10 11 12 13 14 15
004
FTUS42 KMHX 091053 AAB
TAFPGV
TAF AMD
KPGV 091053Z 0911/1006 01010KT 5SM RA OVC008
     FM091800 34010KT P6SM OVC007
     FM092200 32005KT P6SM OVC010
     FM100200 28005KT P6SM BKN015
     FM100400 27005KT P6SM BKN060
     FM100500 27010KT P6SM SCT070
      AMD LTD TO CLD VIS AND WIND=

USA.gov is the U.S. government's official web portal to all federal, state and local government web resources and services.